sensor_id;sensor_type;location;lat;lon;timestamp;temperature;humidity
12889;DHT22;56848;49.896;11.424;2023-03-01T05:02:30;-4.80;99.90
12889;DHT22;56848;49.896;11.424;2023-03-01T05:04:55;-5.00;99.90
12889;DHT22;56848;49.896;11.424;2023-03-01T05:07:22;-5.20;99.90
12889;DHT22;56848;49.896;11.424;2023-03-01T05:09:50;-5.10;99.90
12889;DHT22;56848;49.896;11.424;2023-03-01T05:12:15;-5.20;99.90
12889;DHT22;56848;49.896;11.424;2023-03-01T05:14:41;-5.10;99.90
12889;DHT22;56848;49.896;11.424;2023-03-01T05:17:07;-5.20;99.90
12889;DHT22;56848;49.896;11.424;2023-03-01T05:19:33;-5.00;99.90
12889;DHT22;56848;49.896;11.424;2023-03-01T05:21:59;-5.00;99.90
12889;DHT22;56848;49.896;11.424;2023-03-01T05:24:30;-5.10;99.90
12889;DHT22;56848;49.896;11.424;2023-03-01T05:26:56;-5.20;99.90
12889;DHT22;56848;49.896;11.424;2023-03-01T05:29:23;-5.40;99.90
12889;DHT22;56848;49.896;11.424;2023-03-01T05:31:56;-5.40;99.90
12889;DHT22;56848;49.896;11.424;2023-03-01T05:34:28;-5.60;99.90
12889;DHT22;56848;49.896;11.424;2023-03-01T05:36:54;-5.70;99.90
12889;DHT22;56848;49.896;11.424;2023-03-01T05:39:25;-5.70;99.90
12889;DHT22;56848;49.896;11.424;2023-03-01T05:41:59;-5.60;99.90
12889;DHT22;56848;49.896;11.424;2023-03-01T05:44:27;-5.60;99.90
12889;DHT22;56848;49.896;11.424;2023-03-01T05:46:52;-5.70;99.90
12889;DHT22;56848;49.896;11.424;2023-03-01T05:49:18;-5.70;99.90
12889;DHT22;56848;49.896;11.424;2023-03-01T05:51:48;-5.80;99.90
12889;DHT22;56848;49.896;11.424;2023-03-01T05:54:15;-5.80;99.90
12889;DHT22;56848;49.896;11.424;2023-03-01T05:56:40;-5.80;99.90
12889;DHT22;56848;49.896;11.424;2023-03-01T05:59:06;-5.80;99.90
12889;DHT22;56848;49.896;11.424;2023-03-01T06:01:32;-5.70;99.90
12889;DHT22;56848;49.896;11.424;2023-03-01T06:03:58;-5.70;99.90
12889;DHT22;56848;49.896;11.424;2023-03-01T06:06:24;-5.80;99.90
12889;DHT22;56848;49.896;11.424;2023-03-01T06:08:51;-5.80;99.90
12889;DHT22;56848;49.896;11.424;2023-03-01T06:11:16;-5.70;99.90
12889;DHT22;56848;49.896;11.424;2023-03-01T06:13:45;-5.60;99.90
12889;DHT22;56848;49.896;11.424;2023-03-01T06:16:11;-5.60;99.90
12889;DHT22;56848;49.896;11.424;2023-03-01T06:18:38;-5.60;99.90
12889;DHT22;56848;49.896;11.424;2023-03-01T06:21:04;-5.60;99.90
12889;DHT22;56848;49.896;11.424;2023-03-01T06:23:30;-5.50;99.90
12889;DHT22;56848;49.896;11.424;2023-03-01T06:25:55;-5.60;99.90
12889;DHT22;56848;49.896;11.424;2023-03-01T06:28:21;-5.60;99.90
12889;DHT22;56848;49.896;11.424;2023-03-01T06:30:47;-5.60;99.90
12889;DHT22;56848;49.896;11.424;2023-03-01T06:33:12;-5.70;99.90
12889;DHT22;56848;49.896;11.424;2023-03-01T06:35:38;-5.60;99.90
12889;DHT22;56848;49.896;11.424;2023-03-01T06:38:04;-5.50;99.90
12889;DHT22;56848;49.896;11.424;2023-03-01T06:40:30;-5.50;99.90
12889;DHT22;56848;49.896;11.424;2023-03-01T06:42:57;-5.30;99.90
12889;DHT22;56848;49.896;11.424;2023-03-01T06:45:23;-5.20;99.90
12889;DHT22;56848;49.896;11.424;2023-03-01T06:47:49;-5.20;99.90
12889;DHT22;56848;49.896;11.424;2023-03-01T06:50:15;-5.10;99.90
12889;DHT22;56848;49.896;11.424;2023-03-01T06:52:41;-5.00;99.90
12889;DHT22;56848;49.896;11.424;2023-03-01T06:55:09;-4.90;99.90
12889;DHT22;56848;49.896;11.424;2023-03-01T06:57:34;-4.80;99.90
12889;DHT22;56848;49.896;11.424;2023-03-01T07:00:00;-4.70;99.90
12889;DHT22;56848;49.896;11.424;2023-03-01T07:02:26;-4.80;99.90
12889;DHT22;56848;49.896;11.424;2023-03-01T07:04:52;-4.60;99.90
12889;DHT22;56848;49.896;11.424;2023-03-01T07:07:18;-4.60;99.90
12889;DHT22;56848;49.896;11.424;2023-03-01T07:09:48;-4.50;99.90
12889;DHT22;56848;49.896;11.424;2023-03-01T07:12:14;-4.40;99.90
12889;DHT22;56848;49.896;11.424;2023-03-01T07:14:40;-4.40;99.90
12889;DHT22;56848;49.896;11.424;2023-03-01T07:17:05;-4.30;99.90
12889;DHT22;56848;49.896;11.424;2023-03-01T07:19:31;-4.20;99.90
12889;DHT22;56848;49.896;11.424;2023-03-01T07:21:57;-4.00;99.90
12889;DHT22;56848;49.896;11.424;2023-03-01T07:24:23;-3.90;99.90
12889;DHT22;56848;49.896;11.424;2023-03-01T07:26:49;-3.90;99.90
12889;DHT22;56848;49.896;11.424;2023-03-01T07:29:15;-3.90;99.90
12889;DHT22;56848;49.896;11.424;2023-03-01T07:31:41;-3.80;99.90
12889;DHT22;56848;49.896;11.424;2023-03-01T07:34:07;-3.70;99.90
12889;DHT22;56848;49.896;11.424;2023-03-01T07:36:32;-3.50;99.90
12889;DHT22;56848;49.896;11.424;2023-03-01T07:38:58;-3.40;99.90
12889;DHT22;56848;49.896;11.424;2023-03-01T07:41:23;-3.20;99.90
12889;DHT22;56848;49.896;11.424;2023-03-01T07:43:49;-3.20;99.90
12889;DHT22;56848;49.896;11.424;2023-03-01T07:46:15;-3.00;99.90
12889;DHT22;56848;49.896;11.424;2023-03-01T07:48:40;-3.00;99.90
12889;DHT22;56848;49.896;11.424;2023-03-01T07:51:07;-2.80;99.90
12889;DHT22;56848;49.896;11.424;2023-03-01T07:53:33;-2.70;99.90
12889;DHT22;56848;49.896;11.424;2023-03-01T07:58:30;-2.40;99.90
12889;DHT22;56848;49.896;11.424;2023-03-01T08:00:57;-2.20;99.90
12889;DHT22;56848;49.896;11.424;2023-03-01T08:03:25;-2.00;99.90
12889;DHT22;56848;49.896;11.424;2023-03-01T08:05:51;-2.00;99.90
12889;DHT22;56848;49.896;11.424;2023-03-01T08:08:17;-1.90;99.90
12889;DHT22;56848;49.896;11.424;2023-03-01T08:10:42;-1.70;99.90
12889;DHT22;56848;49.896;11.424;2023-03-01T08:13:08;-1.60;99.90
12889;DHT22;56848;49.896;11.424;2023-03-01T08:15:33;-1.60;99.90
12889;DHT22;56848;49.896;11.424;2023-03-01T08:17:59;-1.50;99.90
12889;DHT22;56848;49.896;11.424;2023-03-01T08:20:24;-1.40;99.90
12889;DHT22;56848;49.896;11.424;2023-03-01T08:22:50;-1.30;99.90
12889;DHT22;56848;49.896;11.424;2023-03-01T08:25:15;-1.20;99.90
12889;DHT22;56848;49.896;11.424;2023-03-01T08:27:41;-1.20;99.90
12889;DHT22;56848;49.896;11.424;2023-03-01T08:30:07;-1.00;99.90
12889;DHT22;56848;49.896;11.424;2023-03-01T08:32:38;-0.80;99.90
12889;DHT22;56848;49.896;11.424;2023-03-01T08:35:04;-0.70;99.90
12889;DHT22;56848;49.896;11.424;2023-03-01T08:37:30;-0.50;99.90
12889;DHT22;56848;49.896;11.424;2023-03-01T08:39:58;-0.50;99.90
12889;DHT22;56848;49.896;11.424;2023-03-01T08:42:24;-0.30;99.90
12889;DHT22;56848;49.896;11.424;2023-03-01T08:44:49;-0.30;99.90
12889;DHT22;56848;49.896;11.424;2023-03-01T08:47:15;-0.20;99.90
12889;DHT22;56848;49.896;11.424;2023-03-01T08:49:41;-0.10;99.90
12889;DHT22;56848;49.896;11.424;2023-03-01T08:52:06;-0.10;99.90
12889;DHT22;56848;49.896;11.424;2023-03-01T08:54:32;0.00;99.90
12889;DHT22;56848;49.896;11.424;2023-03-01T08:56:57;0.00;99.90
12889;DHT22;56848;49.896;11.424;2023-03-01T08:59:25;0.20;99.90
12889;DHT22;56848;49.896;11.424;2023-03-01T09:01:51;0.30;99.90
12889;DHT22;56848;49.896;11.424;2023-03-01T09:04:18;0.30;99.90
12889;DHT22;56848;49.896;11.424;2023-03-01T09:06:43;0.50;99.90
12889;DHT22;56848;49.896;11.424;2023-03-01T09:09:16;0.60;99.90
12889;DHT22;56848;49.896;11.424;2023-03-01T09:11:43;0.60;99.90
12889;DHT22;56848;49.896;11.424;2023-03-01T09:14:12;0.70;99.90
12889;DHT22;56848;49.896;11.424;2023-03-01T09:16:38;0.70;99.90
12889;DHT22;56848;49.896;11.424;2023-03-01T09:19:05;0.90;99.90
12889;DHT22;56848;49.896;11.424;2023-03-01T09:21:30;1.10;99.90
12889;DHT22;56848;49.896;11.424;2023-03-01T09:23:57;1.00;99.90
12889;DHT22;56848;49.896;11.424;2023-03-01T09:26:23;0.90;99.90
12889;DHT22;56848;49.896;11.424;2023-03-01T09:28:51;1.00;99.90
12889;DHT22;56848;49.896;11.424;2023-03-01T09:31:18;1.20;99.90
12889;DHT22;56848;49.896;11.424;2023-03-01T09:33:47;1.30;99.90
12889;DHT22;56848;49.896;11.424;2023-03-01T09:36:16;1.40;99.90
12889;DHT22;56848;49.896;11.424;2023-03-01T09:38:42;1.60;99.90
12889;DHT22;56848;49.896;11.424;2023-03-01T09:44:03;1.60;99.90
12889;DHT22;56848;49.896;11.424;2023-03-01T09:46:40;1.60;99.90
12889;DHT22;56848;49.896;11.424;2023-03-01T09:49:14;1.70;99.90
12889;DHT22;56848;49.896;11.424;2023-03-01T09:51:43;1.90;99.90
12889;DHT22;56848;49.896;11.424;2023-03-01T09:54:11;2.00;99.90
12889;DHT22;56848;49.896;11.424;2023-03-01T09:56:41;2.10;99.90
12889;DHT22;56848;49.896;11.424;2023-03-01T09:59:18;2.30;99.90
12889;DHT22;56848;49.896;11.424;2023-03-01T10:01:56;2.10;99.90
12889;DHT22;56848;49.896;11.424;2023-03-01T10:04:26;2.40;99.90
12889;DHT22;56848;49.896;11.424;2023-03-01T10:09:38;2.40;99.90
12889;DHT22;56848;49.896;11.424;2023-03-01T10:12:33;2.50;99.90
12889;DHT22;56848;49.896;11.424;2023-03-01T10:17:37;2.60;99.90
12889;DHT22;56848;49.896;11.424;2023-03-01T10:22:41;3.00;99.90
12889;DHT22;56848;49.896;11.424;2023-03-01T10:25:13;3.00;99.90
12889;DHT22;56848;49.896;11.424;2023-03-01T10:27:46;2.80;99.90
12889;DHT22;56848;49.896;11.424;2023-03-01T10:30:16;2.90;99.90
12889;DHT22;56848;49.896;11.424;2023-03-01T10:32:43;3.00;99.90
12889;DHT22;56848;49.896;11.424;2023-03-01T10:35:22;3.10;99.90
12889;DHT22;56848;49.896;11.424;2023-03-01T10:40:30;3.10;99.90
12889;DHT22;56848;49.896;11.424;2023-03-01T10:42:58;3.20;99.90
12889;DHT22;56848;49.896;11.424;2023-03-01T10:45:36;3.10;99.90
12889;DHT22;56848;49.896;11.424;2023-03-01T10:50:38;3.50;99.90
12889;DHT22;56848;49.896;11.424;2023-03-01T10:53:05;3.40;99.90
12889;DHT22;56848;49.896;11.424;2023-03-01T10:55:44;3.40;99.90
12889;DHT22;56848;49.896;11.424;2023-03-01T10:58:21;3.40;99.90
12889;DHT22;56848;49.896;11.424;2023-03-01T11:00:56;3.50;99.90
12889;DHT22;56848;49.896;11.424;2023-03-01T11:03:35;3.50;99.90
12889;DHT22;56848;49.896;11.424;2023-03-01T11:08:46;3.60;99.90
12889;DHT22;56848;49.896;11.424;2023-03-01T11:16:26;3.70;99.90
12889;DHT22;56848;49.896;11.424;2023-03-01T11:19:24;3.80;99.90
12889;DHT22;56848;49.896;11.424;2023-03-01T11:22:03;3.70;99.90
12889;DHT22;56848;49.896;11.424;2023-03-01T11:24:50;3.70;99.90
12889;DHT22;56848;49.896;11.424;2023-03-01T11:27:26;3.80;99.90
12889;DHT22;56848;49.896;11.424;2023-03-01T11:30:06;3.90;99.90
12889;DHT22;56848;49.896;11.424;2023-03-01T11:32:41;3.90;99.90
12889;DHT22;56848;49.896;11.424;2023-03-01T11:35:21;4.10;99.90
12889;DHT22;56848;49.896;11.424;2023-03-01T11:49:16;4.30;99.90
12889;DHT22;56848;49.896;11.424;2023-03-01T11:55:14;4.30;99.90
12889;DHT22;56848;49.896;11.424;2023-03-01T12:00:44;4.30;99.90
12889;DHT22;56848;49.896;11.424;2023-03-01T12:14:10;4.60;99.90
12889;DHT22;56848;49.896;11.424;2023-03-01T12:19:38;4.70;99.90
12889;DHT22;56848;49.896;11.424;2023-03-01T12:25:18;4.80;99.90
12889;DHT22;56848;49.896;11.424;2023-03-01T12:33:38;4.90;99.90
12889;DHT22;56848;49.896;11.424;2023-03-01T12:39:38;5.20;99.90
12889;DHT22;56848;49.896;11.424;2023-03-01T12:50:54;5.30;99.90
12889;DHT22;56848;49.896;11.424;2023-03-01T12:55:54;5.40;99.90
12889;DHT22;56848;49.896;11.424;2023-03-01T13:01:39;5.40;99.90
12889;DHT22;56848;49.896;11.424;2023-03-01T13:07:23;5.40;99.90
12889;DHT22;56848;49.896;11.424;2023-03-01T13:17:54;5.50;99.90
12889;DHT22;56848;49.896;11.424;2023-03-01T13:28:39;5.60;99.90
12889;DHT22;56848;49.896;11.424;2023-03-01T13:34:00;5.60;99.90
12889;DHT22;56848;49.896;11.424;2023-03-01T13:46:43;5.70;99.90
12889;DHT22;56848;49.896;11.424;2023-03-01T13:49:13;5.50;99.90
12889;DHT22;56848;49.896;11.424;2023-03-01T13:51:39;5.80;99.90
12889;DHT22;56848;49.896;11.424;2023-03-01T13:54:09;5.60;99.90
12889;DHT22;56848;49.896;11.424;2023-03-01T13:56:37;5.50;99.90
12889;DHT22;56848;49.896;11.424;2023-03-01T13:59:06;5.50;99.90
12889;DHT22;56848;49.896;11.424;2023-03-01T14:01:38;5.60;99.90
12889;DHT22;56848;49.896;11.424;2023-03-01T14:04:22;5.70;99.90
12889;DHT22;56848;49.896;11.424;2023-03-01T14:06:48;5.50;99.90
12889;DHT22;56848;49.896;11.424;2023-03-01T14:09:20;5.80;99.90
12889;DHT22;56848;49.896;11.424;2023-03-01T14:14:48;5.70;99.90
12889;DHT22;56848;49.896;11.424;2023-03-01T14:17:43;5.70;99.90
12889;DHT22;56848;49.896;11.424;2023-03-01T14:20:20;5.70;99.90
12889;DHT22;56848;49.896;11.424;2023-03-01T14:22:47;5.60;99.90
12889;DHT22;56848;49.896;11.424;2023-03-01T14:25:23;5.50;99.90
12889;DHT22;56848;49.896;11.424;2023-03-01T14:28:00;5.70;99.90
12889;DHT22;56848;49.896;11.424;2023-03-01T14:30:34;5.70;99.90
12889;DHT22;56848;49.896;11.424;2023-03-01T14:33:04;5.70;99.90
12889;DHT22;56848;49.896;11.424;2023-03-01T14:35:34;5.70;99.90
12889;DHT22;56848;49.896;11.424;2023-03-01T14:38:00;5.60;99.90
12889;DHT22;56848;49.896;11.424;2023-03-01T14:40:29;5.50;99.90
12889;DHT22;56848;49.896;11.424;2023-03-01T14:42:57;5.60;99.90
12889;DHT22;56848;49.896;11.424;2023-03-01T14:45:26;5.50;99.90
12889;DHT22;56848;49.896;11.424;2023-03-01T14:47:53;5.20;99.90
12889;DHT22;56848;49.896;11.424;2023-03-01T14:52:50;5.30;99.90
12889;DHT22;56848;49.896;11.424;2023-03-01T14:55:19;5.20;99.90
12889;DHT22;56848;49.896;11.424;2023-03-01T14:57:48;5.20;99.90
12889;DHT22;56848;49.896;11.424;2023-03-01T15:00:19;5.10;99.90
12889;DHT22;56848;49.896;11.424;2023-03-01T15:02:47;5.10;99.90
12889;DHT22;56848;49.896;11.424;2023-03-01T15:05:14;5.00;99.90
12889;DHT22;56848;49.896;11.424;2023-03-01T15:07:43;4.90;99.90
12889;DHT22;56848;49.896;11.424;2023-03-01T15:10:22;4.90;99.90
12889;DHT22;56848;49.896;11.424;2023-03-01T15:12:48;4.80;99.90
12889;DHT22;56848;49.896;11.424;2023-03-01T15:15:36;4.80;99.90
12889;DHT22;56848;49.896;11.424;2023-03-01T15:18:15;4.70;99.90
12889;DHT22;56848;49.896;11.424;2023-03-01T15:20:42;4.50;99.90
12889;DHT22;56848;49.896;11.424;2023-03-01T15:23:19;4.40;99.90
12889;DHT22;56848;49.896;11.424;2023-03-01T15:25:45;4.30;99.90
12889;DHT22;56848;49.896;11.424;2023-03-01T15:28:19;4.20;99.90
12889;DHT22;56848;49.896;11.424;2023-03-01T15:30:46;4.10;99.90
12889;DHT22;56848;49.896;11.424;2023-03-01T15:33:32;4.00;99.90
12889;DHT22;56848;49.896;11.424;2023-03-01T15:36:00;3.80;99.90
12889;DHT22;56848;49.896;11.424;2023-03-01T15:40:56;3.70;99.90
12889;DHT22;56848;49.896;11.424;2023-03-01T15:43:45;3.60;99.90
12889;DHT22;56848;49.896;11.424;2023-03-01T15:46:18;3.60;99.90
12889;DHT22;56848;49.896;11.424;2023-03-01T15:48:50;3.60;99.90
12889;DHT22;56848;49.896;11.424;2023-03-01T15:51:18;3.50;99.90
12889;DHT22;56848;49.896;11.424;2023-03-01T15:53:50;3.50;99.90
12889;DHT22;56848;49.896;11.424;2023-03-01T15:56:16;3.40;99.90
12889;DHT22;56848;49.896;11.424;2023-03-01T15:58:42;3.30;99.90
12889;DHT22;56848;49.896;11.424;2023-03-01T16:01:13;3.20;99.90
12889;DHT22;56848;49.896;11.424;2023-03-01T16:03:39;3.20;99.90
12889;DHT22;56848;49.896;11.424;2023-03-01T16:06:05;3.10;99.90
12889;DHT22;56848;49.896;11.424;2023-03-01T16:08:31;3.10;99.90
12889;DHT22;56848;49.896;11.424;2023-03-01T16:10:56;3.00;99.90
12889;DHT22;56848;49.896;11.424;2023-03-01T16:13:22;2.90;99.90
12889;DHT22;56848;49.896;11.424;2023-03-01T16:15:47;2.80;99.90
12889;DHT22;56848;49.896;11.424;2023-03-01T16:18:13;2.70;99.90
12889;DHT22;56848;49.896;11.424;2023-03-01T16:20:39;2.60;99.90
12889;DHT22;56848;49.896;11.424;2023-03-01T16:23:07;2.70;99.90
12889;DHT22;56848;49.896;11.424;2023-03-01T16:25:33;2.60;99.90
12889;DHT22;56848;49.896;11.424;2023-03-01T16:27:59;2.50;99.90
12889;DHT22;56848;49.896;11.424;2023-03-01T16:30:29;2.50;99.90
12889;DHT22;56848;49.896;11.424;2023-03-01T16:32:54;2.30;99.90
12889;DHT22;56848;49.896;11.424;2023-03-01T16:35:21;2.30;99.90
12889;DHT22;56848;49.896;11.424;2023-03-01T16:37:47;2.30;99.90
12889;DHT22;56848;49.896;11.424;2023-03-01T16:40:21;2.10;99.90
12889;DHT22;56848;49.896;11.424;2023-03-01T16:42:48;2.30;99.90
12889;DHT22;56848;49.896;11.424;2023-03-01T16:45:13;2.40;99.90
12889;DHT22;56848;49.896;11.424;2023-03-01T16:47:39;2.40;99.90
12889;DHT22;56848;49.896;11.424;2023-03-01T16:50:05;2.40;99.90
12889;DHT22;56848;49.896;11.424;2023-03-01T16:52:30;2.20;99.90
12889;DHT22;56848;49.896;11.424;2023-03-01T16:54:56;2.20;99.90
12889;DHT22;56848;49.896;11.424;2023-03-01T16:57:22;2.00;99.90
12889;DHT22;56848;49.896;11.424;2023-03-01T16:59:53;2.10;99.90
12889;DHT22;56848;49.896;11.424;2023-03-01T17:02:20;2.10;99.90
12889;DHT22;56848;49.896;11.424;2023-03-01T17:04:52;2.00;99.90
12889;DHT22;56848;49.896;11.424;2023-03-01T17:07:18;1.90;99.90
12889;DHT22;56848;49.896;11.424;2023-03-01T17:09:44;1.90;99.90
12889;DHT22;56848;49.896;11.424;2023-03-01T17:12:12;1.70;99.90
12889;DHT22;56848;49.896;11.424;2023-03-01T17:14:38;1.60;99.90
12889;DHT22;56848;49.896;11.424;2023-03-01T17:17:07;1.70;99.90
12889;DHT22;56848;49.896;11.424;2023-03-01T17:19:32;1.50;99.90
12889;DHT22;56848;49.896;11.424;2023-03-01T17:21:59;1.40;99.90
12889;DHT22;56848;49.896;11.424;2023-03-01T17:24:25;1.40;99.90
12889;DHT22;56848;49.896;11.424;2023-03-01T17:26:51;1.60;99.90
12889;DHT22;56848;49.896;11.424;2023-03-01T17:29:16;1.60;99.90
12889;DHT22;56848;49.896;11.424;2023-03-01T17:31:43;1.70;99.90
12889;DHT22;56848;49.896;11.424;2023-03-01T17:34:08;1.60;99.90
12889;DHT22;56848;49.896;11.424;2023-03-01T17:36:34;1.60;99.90
12889;DHT22;56848;49.896;11.424;2023-03-01T17:39:09;1.50;99.90
12889;DHT22;56848;49.896;11.424;2023-03-01T17:41:34;1.50;99.90
12889;DHT22;56848;49.896;11.424;2023-03-01T17:44:00;1.50;99.90
12889;DHT22;56848;49.896;11.424;2023-03-01T17:46:25;1.40;99.90
12889;DHT22;56848;49.896;11.424;2023-03-01T17:48:51;1.40;99.90
12889;DHT22;56848;49.896;11.424;2023-03-01T17:51:17;1.40;99.90
12889;DHT22;56848;49.896;11.424;2023-03-01T17:53:43;1.40;99.90
12889;DHT22;56848;49.896;11.424;2023-03-01T17:56:09;1.40;99.90
12889;DHT22;56848;49.896;11.424;2023-03-01T17:58:36;1.40;99.90
12889;DHT22;56848;49.896;11.424;2023-03-01T18:01:29;1.40;99.90
12889;DHT22;56848;49.896;11.424;2023-03-01T18:03:55;1.30;99.90
12889;DHT22;56848;49.896;11.424;2023-03-01T18:06:25;1.30;99.90
12889;DHT22;56848;49.896;11.424;2023-03-01T18:08:51;1.20;99.90
12889;DHT22;56848;49.896;11.424;2023-03-01T18:11:23;1.10;99.90
12889;DHT22;56848;49.896;11.424;2023-03-01T18:13:50;1.00;99.90
12889;DHT22;56848;49.896;11.424;2023-03-01T18:16:17;0.70;99.90
12889;DHT22;56848;49.896;11.424;2023-03-01T18:18:43;0.50;99.90
12889;DHT22;56848;49.896;11.424;2023-03-01T18:21:12;0.30;99.90
12889;DHT22;56848;49.896;11.424;2023-03-01T18:23:39;0.10;99.90
12889;DHT22;56848;49.896;11.424;2023-03-01T18:26:07;-0.10;99.90
12889;DHT22;56848;49.896;11.424;2023-03-01T18:28:33;-0.40;99.90
12889;DHT22;56848;49.896;11.424;2023-03-01T18:31:02;-0.40;99.90
12889;DHT22;56848;49.896;11.424;2023-03-01T18:33:28;-0.60;99.90
12889;DHT22;56848;49.896;11.424;2023-03-01T18:35:54;-0.70;99.90
12889;DHT22;56848;49.896;11.424;2023-03-01T18:38:20;-0.60;99.90
12889;DHT22;56848;49.896;11.424;2023-03-01T18:40:45;-0.50;99.90
12889;DHT22;56848;49.896;11.424;2023-03-01T18:43:11;-0.50;99.90
12889;DHT22;56848;49.896;11.424;2023-03-01T18:45:37;-0.40;99.90
12889;DHT22;56848;49.896;11.424;2023-03-01T18:48:03;-0.50;99.90
12889;DHT22;56848;49.896;11.424;2023-03-01T18:50:29;-0.70;99.90
12889;DHT22;56848;49.896;11.424;2023-03-01T18:52:54;-0.70;99.90
12889;DHT22;56848;49.896;11.424;2023-03-01T18:55:20;-0.70;99.90
12889;DHT22;56848;49.896;11.424;2023-03-01T18:57:46;-0.70;99.90
12889;DHT22;56848;49.896;11.424;2023-03-01T19:00:12;-0.70;99.90
12889;DHT22;56848;49.896;11.424;2023-03-01T19:02:38;-0.70;99.90
12889;DHT22;56848;49.896;11.424;2023-03-01T19:05:03;-0.80;99.90
12889;DHT22;56848;49.896;11.424;2023-03-01T19:07:29;-0.70;99.90
12889;DHT22;56848;49.896;11.424;2023-03-01T19:09:56;-0.70;99.90
12889;DHT22;56848;49.896;11.424;2023-03-01T19:12:21;-0.60;99.90
12889;DHT22;56848;49.896;11.424;2023-03-01T19:14:47;-0.50;99.90
12889;DHT22;56848;49.896;11.424;2023-03-01T19:17:12;-0.40;99.90
12889;DHT22;56848;49.896;11.424;2023-03-01T19:19:38;-0.50;99.90
12889;DHT22;56848;49.896;11.424;2023-03-01T19:22:04;-0.50;99.90
12889;DHT22;56848;49.896;11.424;2023-03-01T19:24:32;-0.50;99.90
12889;DHT22;56848;49.896;11.424;2023-03-01T19:26:58;-0.50;99.90
12889;DHT22;56848;49.896;11.424;2023-03-01T19:29:24;-0.50;99.90
12889;DHT22;56848;49.896;11.424;2023-03-01T19:31:49;-0.40;99.90
12889;DHT22;56848;49.896;11.424;2023-03-01T19:34:15;-0.50;99.90
12889;DHT22;56848;49.896;11.424;2023-03-01T19:36:42;-0.50;99.90
12889;DHT22;56848;49.896;11.424;2023-03-01T19:39:08;-0.60;99.90
12889;DHT22;56848;49.896;11.424;2023-03-01T19:41:34;-1.00;99.90
12889;DHT22;56848;49.896;11.424;2023-03-01T19:44:00;-1.10;99.90
12889;DHT22;56848;49.896;11.424;2023-03-01T19:46:31;-1.10;99.90
12889;DHT22;56848;49.896;11.424;2023-03-01T19:48:56;-1.10;99.90
12889;DHT22;56848;49.896;11.424;2023-03-01T19:51:25;-1.00;99.90
12889;DHT22;56848;49.896;11.424;2023-03-01T19:53:50;-1.10;99.90
12889;DHT22;56848;49.896;11.424;2023-03-01T19:56:16;-1.10;99.90
12889;DHT22;56848;49.896;11.424;2023-03-01T19:58:42;-1.10;99.90
12889;DHT22;56848;49.896;11.424;2023-03-01T20:01:20;-0.70;99.90
12889;DHT22;56848;49.896;11.424;2023-03-01T20:03:46;-0.40;99.90
12889;DHT22;56848;49.896;11.424;2023-03-01T20:06:17;-0.30;99.90
12889;DHT22;56848;49.896;11.424;2023-03-01T20:08:44;0.00;99.90
12889;DHT22;56848;49.896;11.424;2023-03-01T20:11:12;0.00;99.90
12889;DHT22;56848;49.896;11.424;2023-03-01T20:13:38;0.00;99.90
12889;DHT22;56848;49.896;11.424;2023-03-01T20:16:05;0.10;99.90
12889;DHT22;56848;49.896;11.424;2023-03-01T20:18:31;0.20;99.90
12889;DHT22;56848;49.896;11.424;2023-03-01T20:20:57;0.20;99.90
12889;DHT22;56848;49.896;11.424;2023-03-01T20:23:24;0.30;99.90
12889;DHT22;56848;49.896;11.424;2023-03-01T20:25:50;0.30;99.90
12889;DHT22;56848;49.896;11.424;2023-03-01T20:28:17;0.20;99.90
12889;DHT22;56848;49.896;11.424;2023-03-01T20:30:44;0.10;99.90
12889;DHT22;56848;49.896;11.424;2023-03-01T20:33:10;0.20;99.90
12889;DHT22;56848;49.896;11.424;2023-03-01T20:35:39;0.20;99.90
12889;DHT22;56848;49.896;11.424;2023-03-01T20:38:04;0.20;99.90
12889;DHT22;56848;49.896;11.424;2023-03-01T20:40:30;0.20;99.90
12889;DHT22;56848;49.896;11.424;2023-03-01T20:42:57;0.20;99.90
12889;DHT22;56848;49.896;11.424;2023-03-01T20:45:23;0.20;99.90
12889;DHT22;56848;49.896;11.424;2023-03-01T20:47:50;0.20;99.90
12889;DHT22;56848;49.896;11.424;2023-03-01T20:50:17;0.20;99.90
12889;DHT22;56848;49.896;11.424;2023-03-01T20:52:42;0.30;99.90
12889;DHT22;56848;49.896;11.424;2023-03-01T20:55:08;0.20;99.90
12889;DHT22;56848;49.896;11.424;2023-03-01T20:57:34;0.20;99.90
12889;DHT22;56848;49.896;11.424;2023-03-01T21:00:00;0.20;99.90
12889;DHT22;56848;49.896;11.424;2023-03-01T21:02:25;0.20;99.90
12889;DHT22;56848;49.896;11.424;2023-03-01T21:04:51;0.20;99.90
12889;DHT22;56848;49.896;11.424;2023-03-01T21:07:17;0.10;99.90
12889;DHT22;56848;49.896;11.424;2023-03-01T21:09:42;0.00;99.90
12889;DHT22;56848;49.896;11.424;2023-03-01T21:12:10;0.00;99.90
12889;DHT22;56848;49.896;11.424;2023-03-01T21:14:35;0.10;99.90
12889;DHT22;56848;49.896;11.424;2023-03-01T21:17:11;0.20;99.90
12889;DHT22;56848;49.896;11.424;2023-03-01T21:19:38;0.20;99.90
12889;DHT22;56848;49.896;11.424;2023-03-01T21:22:05;0.10;99.90
12889;DHT22;56848;49.896;11.424;2023-03-01T21:24:31;0.10;99.90
12889;DHT22;56848;49.896;11.424;2023-03-01T21:26:57;0.10;99.90
12889;DHT22;56848;49.896;11.424;2023-03-01T21:29:22;0.10;99.90
12889;DHT22;56848;49.896;11.424;2023-03-01T21:31:48;0.10;99.90
12889;DHT22;56848;49.896;11.424;2023-03-01T21:34:14;0.20;99.90
12889;DHT22;56848;49.896;11.424;2023-03-01T21:36:40;0.20;99.90
12889;DHT22;56848;49.896;11.424;2023-03-01T21:39:06;0.20;99.90
12889;DHT22;56848;49.896;11.424;2023-03-01T21:41:34;0.10;99.90
12889;DHT22;56848;49.896;11.424;2023-03-01T21:44:02;0.10;99.90
12889;DHT22;56848;49.896;11.424;2023-03-01T21:46:30;0.10;99.90
12889;DHT22;56848;49.896;11.424;2023-03-01T21:48:56;0.00;99.90
12889;DHT22;56848;49.896;11.424;2023-03-01T21:51:25;-0.10;99.90
12889;DHT22;56848;49.896;11.424;2023-03-01T21:53:52;-0.20;99.90
12889;DHT22;56848;49.896;11.424;2023-03-01T21:56:21;-0.20;99.90
12889;DHT22;56848;49.896;11.424;2023-03-01T21:58:48;0.00;99.90
